sensor_id;sensor_type;location;lat;lon;timestamp;pressure;altitude;pressure_sealevel;temperature;humidity
76311;BME280;65120;59.304;18.294;2023-04-06T00:00:25;102635.28;;;0.73;69.98
76311;BME280;65120;59.304;18.294;2023-04-06T00:02:52;102638.66;;;0.72;70.43
76311;BME280;65120;59.304;18.294;2023-04-06T00:05:19;102636.88;;;0.71;70.38
76311;BME280;65120;59.304;18.294;2023-04-06T00:07:47;102633.28;;;0.67;69.70
76311;BME280;65120;59.304;18.294;2023-04-06T00:10:14;102633.22;;;0.65;70.42
76311;BME280;65120;59.304;18.294;2023-04-06T00:12:41;102639.94;;;0.63;70.33
76311;BME280;65120;59.304;18.294;2023-04-06T00:15:09;102642.38;;;0.60;70.37
76311;BME280;65120;59.304;18.294;2023-04-06T00:17:37;102645.72;;;0.59;69.92
76311;BME280;65120;59.304;18.294;2023-04-06T00:20:05;102640.41;;;0.56;69.36
76311;BME280;65120;59.304;18.294;2023-04-06T00:22:33;102640.34;;;0.55;69.71
76311;BME280;65120;59.304;18.294;2023-04-06T00:25:00;102643.66;;;0.52;69.96
76311;BME280;65120;59.304;18.294;2023-04-06T00:27:26;102635.78;;;0.49;70.01
76311;BME280;65120;59.304;18.294;2023-04-06T00:29:53;102640.75;;;0.46;70.12
76311;BME280;65120;59.304;18.294;2023-04-06T00:32:20;102642.34;;;0.44;69.71
76311;BME280;65120;59.304;18.294;2023-04-06T00:34:48;102635.38;;;0.41;70.29
76311;BME280;65120;59.304;18.294;2023-04-06T00:37:16;102642.09;;;0.39;70.16
76311;BME280;65120;59.304;18.294;2023-04-06T00:39:42;102642.81;;;0.37;69.59
76311;BME280;65120;59.304;18.294;2023-04-06T00:42:11;102646.22;;;0.36;69.50
76311;BME280;65120;59.304;18.294;2023-04-06T00:44:39;102647.81;;;0.34;69.65
76311;BME280;65120;59.304;18.294;2023-04-06T00:47:06;102649.44;;;0.32;69.60
76311;BME280;65120;59.304;18.294;2023-04-06T00:49:34;102645.00;;;0.29;69.52
76311;BME280;65120;59.304;18.294;2023-04-06T00:52:02;102647.47;;;0.28;69.85
76311;BME280;65120;59.304;18.294;2023-04-06T00:54:29;102647.31;;;0.25;70.16
76311;BME280;65120;59.304;18.294;2023-04-06T00:56:57;102647.16;;;0.21;69.85
76311;BME280;65120;59.304;18.294;2023-04-06T00:59:24;102642.84;;;0.20;70.27
76311;BME280;65120;59.304;18.294;2023-04-06T01:01:51;102644.44;;;0.18;70.28
76311;BME280;65120;59.304;18.294;2023-04-06T01:04:18;102643.44;;;0.16;69.24
76311;BME280;65120;59.304;18.294;2023-04-06T01:06:45;102642.50;;;0.14;70.17
76311;BME280;65120;59.304;18.294;2023-04-06T01:09:13;102647.53;;;0.13;69.69
76311;BME280;65120;59.304;18.294;2023-04-06T01:11:40;102647.44;;;0.11;69.95
76311;BME280;65120;59.304;18.294;2023-04-06T01:14:07;102648.25;;;0.10;69.71
76311;BME280;65120;59.304;18.294;2023-04-06T01:16:34;102633.16;;;0.00;69.55
76311;BME280;65120;59.304;18.294;2023-04-06T01:19:04;102643.78;;;0.06;69.31
76311;BME280;65120;59.304;18.294;2023-04-06T01:21:33;102641.97;;;0.05;69.41
76311;BME280;65120;59.304;18.294;2023-04-06T01:24:01;102647.94;;;0.04;69.44
76311;BME280;65120;59.304;18.294;2023-04-06T01:26:28;102650.41;;;0.03;69.60
76311;BME280;65120;59.304;18.294;2023-04-06T01:28:56;102644.47;;;0.04;70.19
76311;BME280;65120;59.304;18.294;2023-04-06T01:31:23;102645.19;;;0.01;69.84
76311;BME280;65120;59.304;18.294;2023-04-06T01:33:51;102652.91;;;0.01;69.85
76311;BME280;65120;59.304;18.294;2023-04-06T01:36:19;102650.25;;;-0.01;70.04
76311;BME280;65120;59.304;18.294;2023-04-06T01:38:46;102652.75;;;-0.02;70.03
76311;BME280;65120;59.304;18.294;2023-04-06T01:41:14;102651.88;;;-0.03;69.70
76311;BME280;65120;59.304;18.294;2023-04-06T01:43:41;102656.09;;;-0.03;70.12
76311;BME280;65120;59.304;18.294;2023-04-06T01:46:08;102654.16;;;-0.07;70.18
76311;BME280;65120;59.304;18.294;2023-04-06T01:48:35;102650.78;;;-0.06;70.10
76311;BME280;65120;59.304;18.294;2023-04-06T01:51:02;102652.41;;;-0.08;70.02
76311;BME280;65120;59.304;18.294;2023-04-06T01:53:29;102656.63;;;-0.09;70.59
76311;BME280;65120;59.304;18.294;2023-04-06T01:55:56;102661.72;;;-0.10;69.76
76311;BME280;65120;59.304;18.294;2023-04-06T01:58:24;102654.88;;;-0.10;70.20
76311;BME280;65120;59.304;18.294;2023-04-06T02:00:51;102652.25;;;-0.11;70.70
76311;BME280;65120;59.304;18.294;2023-04-06T02:03:18;102653.91;;;-0.12;70.23
76311;BME280;65120;59.304;18.294;2023-04-06T02:05:45;102652.25;;;-0.11;70.03
76311;BME280;65120;59.304;18.294;2023-04-06T02:08:12;102647.09;;;-0.11;70.62
76311;BME280;65120;59.304;18.294;2023-04-06T02:10:39;102652.25;;;-0.11;70.70
76311;BME280;65120;59.304;18.294;2023-04-06T02:13:06;102656.47;;;-0.12;70.78
76311;BME280;65120;59.304;18.294;2023-04-06T02:15:34;102649.69;;;-0.11;71.00
76311;BME280;65120;59.304;18.294;2023-04-06T02:18:01;102660.03;;;-0.10;71.08
76311;BME280;65120;59.304;18.294;2023-04-06T02:20:28;102653.19;;;-0.09;71.41
76311;BME280;65120;59.304;18.294;2023-04-06T02:22:56;102659.31;;;-0.07;71.19
76311;BME280;65120;59.304;18.294;2023-04-06T02:25:24;102660.19;;;-0.07;71.44
76311;BME280;65120;59.304;18.294;2023-04-06T02:27:50;102662.84;;;-0.05;71.56
76311;BME280;65120;59.304;18.294;2023-04-06T02:30:17;102657.78;;;-0.04;71.24
76311;BME280;65120;59.304;18.294;2023-04-06T02:32:46;102654.44;;;-0.03;70.95
76311;BME280;65120;59.304;18.294;2023-04-06T02:35:13;102661.31;;;-0.02;71.28
76311;BME280;65120;59.304;18.294;2023-04-06T02:37:40;102661.44;;;0.00;70.68
76311;BME280;65120;59.304;18.294;2023-04-06T02:40:08;102658.13;;;0.03;70.90
76311;BME280;65120;59.304;18.294;2023-04-06T02:42:35;102662.47;;;0.04;70.90
76311;BME280;65120;59.304;18.294;2023-04-06T02:45:02;102653.94;;;0.05;71.06
76311;BME280;65120;59.304;18.294;2023-04-06T02:47:29;102651.47;;;0.06;71.97
76311;BME280;65120;59.304;18.294;2023-04-06T02:49:57;102654.06;;;0.06;71.41
76311;BME280;65120;59.304;18.294;2023-04-06T02:52:24;102661.91;;;0.09;71.61
76311;BME280;65120;59.304;18.294;2023-04-06T02:54:51;102665.44;;;0.11;71.62
76311;BME280;65120;59.304;18.294;2023-04-06T02:57:18;102647.22;;;0.07;71.86
76311;BME280;65120;59.304;18.294;2023-04-06T02:59:47;102667.38;;;0.15;71.42
76311;BME280;65120;59.304;18.294;2023-04-06T03:02:16;102669.16;;;0.16;71.65
76311;BME280;65120;59.304;18.294;2023-04-06T03:04:44;102662.41;;;0.18;72.08
76311;BME280;65120;59.304;18.294;2023-04-06T03:07:12;102663.41;;;0.20;71.57
76311;BME280;65120;59.304;18.294;2023-04-06T03:09:39;102666.03;;;0.22;72.11
76311;BME280;65120;59.304;18.294;2023-04-06T03:12:06;102667.00;;;0.24;72.00
76311;BME280;65120;59.304;18.294;2023-04-06T03:14:33;102669.63;;;0.26;72.17
76311;BME280;65120;59.304;18.294;2023-04-06T03:17:00;102662.69;;;0.23;71.98
76311;BME280;65120;59.304;18.294;2023-04-06T03:19:27;102674.16;;;0.30;71.59
76311;BME280;65120;59.304;18.294;2023-04-06T03:21:54;102670.78;;;0.31;71.74
76311;BME280;65120;59.304;18.294;2023-04-06T03:24:22;102663.94;;;0.31;72.05
76311;BME280;65120;59.304;18.294;2023-04-06T03:26:49;102671.75;;;0.33;71.56
76311;BME280;65120;59.304;18.294;2023-04-06T03:29:16;102672.72;;;0.35;71.73
76311;BME280;65120;59.304;18.294;2023-04-06T03:31:43;102677.06;;;0.36;71.62
76311;BME280;65120;59.304;18.294;2023-04-06T03:34:10;102672.06;;;0.39;72.05
76311;BME280;65120;59.304;18.294;2023-04-06T03:36:37;102679.00;;;0.40;71.82
76311;BME280;65120;59.304;18.294;2023-04-06T03:39:04;102685.91;;;0.41;71.85
76311;BME280;65120;59.304;18.294;2023-04-06T03:41:32;102681.75;;;0.43;72.02
76311;BME280;65120;59.304;18.294;2023-04-06T03:43:59;102688.63;;;0.44;71.90
76311;BME280;65120;59.304;18.294;2023-04-06T03:46:26;102689.50;;;0.44;72.02
76311;BME280;65120;59.304;18.294;2023-04-06T03:48:53;102689.63;;;0.46;72.21
76311;BME280;65120;59.304;18.294;2023-04-06T03:51:20;102685.34;;;0.47;72.08
76311;BME280;65120;59.304;18.294;2023-04-06T03:53:47;102689.78;;;0.49;71.37
76311;BME280;65120;59.304;18.294;2023-04-06T03:56:14;102697.56;;;0.51;71.81
76311;BME280;65120;59.304;18.294;2023-04-06T03:58:42;102696.84;;;0.53;71.88
76311;BME280;65120;59.304;18.294;2023-04-06T04:01:10;102696.84;;;0.53;71.69
76311;BME280;65120;59.304;18.294;2023-04-06T04:03:37;102701.19;;;0.54;71.64
76311;BME280;65120;59.304;18.294;2023-04-06T04:06:04;102700.38;;;0.55;71.75
76311;BME280;65120;59.304;18.294;2023-04-06T04:08:31;102697.88;;;0.57;72.00
76311;BME280;65120;59.304;18.294;2023-04-06T04:10:58;102695.25;;;0.55;71.56
76311;BME280;65120;59.304;18.294;2023-04-06T04:13:25;102701.19;;;0.54;70.98
76311;BME280;65120;59.304;18.294;2023-04-06T04:15:53;102698.69;;;0.56;71.54
76311;BME280;65120;59.304;18.294;2023-04-06T04:18:20;102696.69;;;0.50;71.94
76311;BME280;65120;59.304;18.294;2023-04-06T04:20:47;102708.97;;;0.56;70.96
76311;BME280;65120;59.304;18.294;2023-04-06T04:23:14;102700.28;;;0.54;71.52
76311;BME280;65120;59.304;18.294;2023-04-06T04:25:41;102709.78;;;0.55;70.94
76311;BME280;65120;59.304;18.294;2023-04-06T04:28:08;102702.13;;;0.56;71.79
76311;BME280;65120;59.304;18.294;2023-04-06T04:30:35;102710.66;;;0.55;70.92
76311;BME280;65120;59.304;18.294;2023-04-06T04:33:03;102705.53;;;0.55;71.11
76311;BME280;65120;59.304;18.294;2023-04-06T04:35:30;102709.06;;;0.57;71.59
76311;BME280;65120;59.304;18.294;2023-04-06T04:37:57;102712.44;;;0.56;71.57
76311;BME280;65120;59.304;18.294;2023-04-06T04:40:24;102712.44;;;0.56;71.17
76311;BME280;65120;59.304;18.294;2023-04-06T04:42:51;102707.28;;;0.56;71.29
76311;BME280;65120;59.304;18.294;2023-04-06T04:45:17;102701.09;;;0.53;71.97
76311;BME280;65120;59.304;18.294;2023-04-06T04:47:44;102715.97;;;0.58;71.19
76311;BME280;65120;59.304;18.294;2023-04-06T04:50:13;102711.66;;;0.57;71.91
76311;BME280;65120;59.304;18.294;2023-04-06T04:52:39;102720.31;;;0.59;71.54
76311;BME280;65120;59.304;18.294;2023-04-06T04:55:07;102708.91;;;0.54;72.22
76311;BME280;65120;59.304;18.294;2023-04-06T04:57:34;102720.47;;;0.62;71.62
76311;BME280;65120;59.304;18.294;2023-04-06T05:00:01;102724.81;;;0.63;71.32
76311;BME280;65120;59.304;18.294;2023-04-06T05:02:28;102723.13;;;0.64;71.26
76311;BME280;65120;59.304;18.294;2023-04-06T05:04:55;102721.53;;;0.66;70.97
76311;BME280;65120;59.304;18.294;2023-04-06T05:07:23;102731.88;;;0.67;71.27
76311;BME280;65120;59.304;18.294;2023-04-06T05:09:50;102726.75;;;0.67;71.61
76311;BME280;65120;59.304;18.294;2023-04-06T05:12:18;102726.91;;;0.71;71.86
76311;BME280;65120;59.304;18.294;2023-04-06T05:14:45;102728.69;;;0.72;72.04
76311;BME280;65120;59.304;18.294;2023-04-06T05:17:12;102737.44;;;0.75;71.97
76311;BME280;65120;59.304;18.294;2023-04-06T05:19:38;102738.44;;;0.77;71.70
76311;BME280;65120;59.304;18.294;2023-04-06T05:22:05;102733.44;;;0.80;71.39
76311;BME280;65120;59.304;18.294;2023-04-06T05:24:34;102728.34;;;0.82;71.97
76311;BME280;65120;59.304;18.294;2023-04-06T05:27:01;102731.03;;;0.83;72.51
76311;BME280;65120;59.304;18.294;2023-04-06T05:29:29;102721.78;;;0.87;71.70
76311;BME280;65120;59.304;18.294;2023-04-06T05:31:56;102723.63;;;0.89;71.54
76311;BME280;65120;59.304;18.294;2023-04-06T05:34:23;102731.50;;;0.93;72.61
76311;BME280;65120;59.304;18.294;2023-04-06T05:36:50;102729.81;;;0.93;72.18
76311;BME280;65120;59.304;18.294;2023-04-06T05:39:17;102743.81;;;0.98;72.05
76311;BME280;65120;59.304;18.294;2023-04-06T05:41:45;102740.50;;;1.01;71.89
76311;BME280;65120;59.304;18.294;2023-04-06T05:44:12;102738.81;;;1.01;72.29
76311;BME280;65120;59.304;18.294;2023-04-06T05:46:39;102744.28;;;1.07;72.08
76311;BME280;65120;59.304;18.294;2023-04-06T05:49:06;102741.94;;;1.12;72.38
76311;BME280;65120;59.304;18.294;2023-04-06T05:51:32;102746.44;;;1.16;71.57
76311;BME280;65120;59.304;18.294;2023-04-06T05:53:59;102744.03;;;1.19;72.36
76311;BME280;65120;59.304;18.294;2023-04-06T05:56:26;102748.59;;;1.25;72.30
76311;BME280;65120;59.304;18.294;2023-04-06T05:58:57;102747.81;;;1.26;72.12
76311;BME280;65120;59.304;18.294;2023-04-06T06:01:24;102748.94;;;1.31;72.15
76311;BME280;65120;59.304;18.294;2023-04-06T06:03:50;102747.41;;;1.34;72.49
76311;BME280;65120;59.304;18.294;2023-04-06T06:06:17;102753.59;;;1.38;72.51
76311;BME280;65120;59.304;18.294;2023-04-06T06:08:45;102746.97;;;1.43;72.47
76311;BME280;65120;59.304;18.294;2023-04-06T06:11:12;102745.53;;;1.48;72.69
76311;BME280;65120;59.304;18.294;2023-04-06T06:13:39;102747.53;;;1.54;72.13
76311;BME280;65120;59.304;18.294;2023-04-06T06:16:08;102745.16;;;1.58;72.09
76311;BME280;65120;59.304;18.294;2023-04-06T06:18:35;102743.69;;;1.64;72.61
76311;BME280;65120;59.304;18.294;2023-04-06T06:21:02;102744.81;;;1.69;72.15
76311;BME280;65120;59.304;18.294;2023-04-06T06:23:29;102741.66;;;1.74;72.62
76311;BME280;65120;59.304;18.294;2023-04-06T06:25:56;102754.84;;;1.80;72.16
76311;BME280;65120;59.304;18.294;2023-04-06T06:28:24;102755.09;;;1.85;72.04
76311;BME280;65120;59.304;18.294;2023-04-06T06:30:51;102742.09;;;1.84;72.37
76311;BME280;65120;59.304;18.294;2023-04-06T06:33:20;102754.69;;;1.95;71.92
76311;BME280;65120;59.304;18.294;2023-04-06T06:35:46;102750.66;;;2.00;72.50
76311;BME280;65120;59.304;18.294;2023-04-06T06:38:13;102761.25;;;2.07;72.35
76311;BME280;65120;59.304;18.294;2023-04-06T06:40:40;102760.66;;;2.12;72.39
76311;BME280;65120;59.304;18.294;2023-04-06T06:43:07;102760.09;;;2.18;72.48
76311;BME280;65120;59.304;18.294;2023-04-06T06:45:34;102755.00;;;2.19;71.86
76311;BME280;65120;59.304;18.294;2023-04-06T06:48:01;102742.25;;;2.22;72.38
76311;BME280;65120;59.304;18.294;2023-04-06T06:50:30;102764.34;;;2.35;72.02
76311;BME280;65120;59.304;18.294;2023-04-06T06:52:57;102762.03;;;2.41;72.26
76311;BME280;65120;59.304;18.294;2023-04-06T06:55:23;102758.00;;;2.46;72.21
76311;BME280;65120;59.304;18.294;2023-04-06T06:57:52;102762.63;;;2.54;71.43
76311;BME280;65120;59.304;18.294;2023-04-06T07:00:19;102755.03;;;2.57;71.53
76311;BME280;65120;59.304;18.294;2023-04-06T07:02:46;102768.25;;;2.64;71.24
76311;BME280;65120;59.304;18.294;2023-04-06T07:05:14;102763.41;;;2.70;71.04
76311;BME280;65120;59.304;18.294;2023-04-06T07:07:44;102764.56;;;2.77;71.22
76311;BME280;65120;59.304;18.294;2023-04-06T07:10:11;102765.72;;;2.84;71.20
76311;BME280;65120;59.304;18.294;2023-04-06T07:12:38;102767.69;;;2.89;70.74
76311;BME280;65120;59.304;18.294;2023-04-06T07:15:06;102769.75;;;2.97;70.85
76311;BME280;65120;59.304;18.294;2023-04-06T07:17:33;102762.28;;;3.03;70.50
76311;BME280;65120;59.304;18.294;2023-04-06T07:20:00;102756.22;;;3.02;70.87
76311;BME280;65120;59.304;18.294;2023-04-06T07:22:27;102767.97;;;3.15;70.55
76311;BME280;65120;59.304;18.294;2023-04-06T07:24:55;102768.34;;;3.24;70.17
76311;BME280;65120;59.304;18.294;2023-04-06T07:27:22;102765.25;;;3.31;70.48
76311;BME280;65120;59.304;18.294;2023-04-06T07:29:49;102775.84;;;3.37;70.02
76311;BME280;65120;59.304;18.294;2023-04-06T07:32:16;102772.84;;;3.48;70.05
76311;BME280;65120;59.304;18.294;2023-04-06T07:34:43;102780.91;;;3.55;70.08
76311;BME280;65120;59.304;18.294;2023-04-06T07:37:10;102771.78;;;3.64;70.06
76311;BME280;65120;59.304;18.294;2023-04-06T07:39:37;102770.34;;;3.70;69.08
76311;BME280;65120;59.304;18.294;2023-04-06T07:42:06;102768.19;;;3.81;69.13
76311;BME280;65120;59.304;18.294;2023-04-06T07:44:33;102775.59;;;3.93;68.03
76311;BME280;65120;59.304;18.294;2023-04-06T07:47:00;102767.31;;;4.01;67.42
76311;BME280;65120;59.304;18.294;2023-04-06T07:49:26;102771.34;;;4.16;67.63
76311;BME280;65120;59.304;18.294;2023-04-06T07:51:53;102771.84;;;4.29;66.58
76311;BME280;65120;59.304;18.294;2023-04-06T07:54:20;102772.28;;;4.40;67.03
76311;BME280;65120;59.304;18.294;2023-04-06T07:56:47;102775.28;;;4.51;66.53
76311;BME280;65120;59.304;18.294;2023-04-06T07:59:15;102771.31;;;4.59;66.21
76311;BME280;65120;59.304;18.294;2023-04-06T08:01:42;102777.59;;;4.66;66.54
76311;BME280;65120;59.304;18.294;2023-04-06T08:04:09;102778.72;;;4.72;66.01
76311;BME280;65120;59.304;18.294;2023-04-06T08:06:36;102775.47;;;4.78;66.12
76311;BME280;65120;59.304;18.294;2023-04-06T08:09:03;102780.88;;;4.84;65.56
76311;BME280;65120;59.304;18.294;2023-04-06T08:11:30;102779.31;;;4.89;64.38
76311;BME280;65120;59.304;18.294;2023-04-06T08:13:57;102780.34;;;4.93;64.79
76311;BME280;65120;59.304;18.294;2023-04-06T08:16:25;102777.97;;;4.99;64.42
76311;BME280;65120;59.304;18.294;2023-04-06T08:18:52;102782.41;;;5.03;64.18
76311;BME280;65120;59.304;18.294;2023-04-06T08:21:19;102782.53;;;5.06;63.79
76311;BME280;65120;59.304;18.294;2023-04-06T08:23:46;102786.06;;;5.08;64.04
76311;BME280;65120;59.304;18.294;2023-04-06T08:26:13;102790.47;;;5.11;63.36
76311;BME280;65120;59.304;18.294;2023-04-06T08:28:39;102786.25;;;5.13;63.08
76311;BME280;65120;59.304;18.294;2023-04-06T08:31:06;102793.25;;;5.15;62.66
76311;BME280;65120;59.304;18.294;2023-04-06T08:33:35;102790.75;;;5.18;62.64
76311;BME280;65120;59.304;18.294;2023-04-06T08:36:08;102792.47;;;5.18;62.34
76311;BME280;65120;59.304;18.294;2023-04-06T08:38:36;102785.63;;;5.20;62.16
76311;BME280;65120;59.304;18.294;2023-04-06T08:41:07;102784.03;;;5.24;62.11
76311;BME280;65120;59.304;18.294;2023-04-06T08:43:39;102783.22;;;5.25;61.90
76311;BME280;65120;59.304;18.294;2023-04-06T08:46:08;102779.84;;;5.27;60.46
76311;BME280;65120;59.304;18.294;2023-04-06T08:48:37;102781.56;;;5.27;60.79
76311;BME280;65120;59.304;18.294;2023-04-06T08:51:05;102785.13;;;5.30;60.38
76311;BME280;65120;59.304;18.294;2023-04-06T08:53:32;102782.47;;;5.29;59.67
76311;BME280;65120;59.304;18.294;2023-04-06T08:55:59;102786.09;;;5.32;59.80
76311;BME280;65120;59.304;18.294;2023-04-06T08:58:31;102785.16;;;5.32;59.59
76311;BME280;65120;59.304;18.294;2023-04-06T09:00:59;102780.94;;;5.34;60.12
76311;BME280;65120;59.304;18.294;2023-04-06T09:03:28;102782.69;;;5.35;60.27
76311;BME280;65120;59.304;18.294;2023-04-06T09:05:58;102779.19;;;5.33;59.89
76311;BME280;65120;59.304;18.294;2023-04-06T09:08:25;102776.59;;;5.33;59.87
76311;BME280;65120;59.304;18.294;2023-04-06T09:10:52;102780.06;;;5.33;59.89
76311;BME280;65120;59.304;18.294;2023-04-06T09:13:19;102778.31;;;5.32;60.19
76311;BME280;65120;59.304;18.294;2023-04-06T09:15:46;102780.94;;;5.34;59.72
76311;BME280;65120;59.304;18.294;2023-04-06T09:18:13;102781.78;;;5.33;59.72
76311;BME280;65120;59.304;18.294;2023-04-06T09:20:40;102769.78;;;5.36;59.14
76311;BME280;65120;59.304;18.294;2023-04-06T09:23:18;102774.97;;;5.36;59.27
76311;BME280;65120;59.304;18.294;2023-04-06T09:25:45;102775.81;;;5.35;58.70
76311;BME280;65120;59.304;18.294;2023-04-06T09:28:12;102775.84;;;5.37;58.70
76311;BME280;65120;59.304;18.294;2023-04-06T09:30:47;102776.91;;;5.42;58.91
76311;BME280;65120;59.304;18.294;2023-04-06T09:33:22;102770.06;;;5.44;58.35
76311;BME280;65120;59.304;18.294;2023-04-06T09:35:49;102763.06;;;5.41;57.71
76311;BME280;65120;59.304;18.294;2023-04-06T09:38:17;102760.63;;;5.46;57.37
76311;BME280;65120;59.304;18.294;2023-04-06T09:40:49;102761.56;;;5.48;56.30
76311;BME280;65120;59.304;18.294;2023-04-06T09:43:23;102768.50;;;5.49;56.51
76311;BME280;65120;59.304;18.294;2023-04-06T09:45:51;102765.19;;;5.53;57.07
76311;BME280;65120;59.304;18.294;2023-04-06T09:48:19;102755.72;;;5.54;55.74
76311;BME280;65120;59.304;18.294;2023-04-06T09:50:47;102761.88;;;5.57;55.43
76311;BME280;65120;59.304;18.294;2023-04-06T09:53:17;102761.09;;;5.60;55.18
76311;BME280;65120;59.304;18.294;2023-04-06T09:55:46;102770.75;;;5.64;54.91
76311;BME280;65120;59.304;18.294;2023-04-06T09:58:16;102762.13;;;5.65;54.80
76311;BME280;65120;59.304;18.294;2023-04-06T10:00:47;102765.66;;;5.67;55.09
76311;BME280;65120;59.304;18.294;2023-04-06T10:03:22;102763.19;;;5.70;56.09
76311;BME280;65120;59.304;18.294;2023-04-06T10:05:54;102767.59;;;5.73;55.61
76311;BME280;65120;59.304;18.294;2023-04-06T10:08:27;102761.63;;;5.75;56.30
76311;BME280;65120;59.304;18.294;2023-04-06T10:10:55;102769.34;;;5.74;56.85
76311;BME280;65120;59.304;18.294;2023-04-06T10:13:23;102766.81;;;5.75;57.16
76311;BME280;65120;59.304;18.294;2023-04-06T10:15:51;102757.13;;;5.70;56.15
76311;BME280;65120;59.304;18.294;2023-04-06T10:18:18;102772.91;;;5.77;56.37
76311;BME280;65120;59.304;18.294;2023-04-06T10:20:49;102772.19;;;5.81;56.28
76311;BME280;65120;59.304;18.294;2023-04-06T10:23:19;102776.59;;;5.84;55.95
76311;BME280;65120;59.304;18.294;2023-04-06T10:25:54;102777.66;;;5.89;56.02
76311;BME280;65120;59.304;18.294;2023-04-06T10:28:21;102779.34;;;5.89;56.38
76311;BME280;65120;59.304;18.294;2023-04-06T10:30:48;102775.22;;;5.94;56.20
76311;BME280;65120;59.304;18.294;2023-04-06T10:33:16;102771.00;;;5.97;55.80
76311;BME280;65120;59.304;18.294;2023-04-06T10:35:43;102773.69;;;6.00;56.11
76311;BME280;65120;59.304;18.294;2023-04-06T10:38:10;102766.84;;;6.02;55.30
76311;BME280;65120;59.304;18.294;2023-04-06T10:40:40;102773.91;;;6.06;55.75
76311;BME280;65120;59.304;18.294;2023-04-06T10:43:10;102771.34;;;6.08;55.19
76311;BME280;65120;59.304;18.294;2023-04-06T10:45:38;102768.81;;;6.10;55.37
76311;BME280;65120;59.304;18.294;2023-04-06T10:48:15;102761.94;;;6.12;55.13
76311;BME280;65120;59.304;18.294;2023-04-06T10:50:43;102766.31;;;6.13;54.86
76311;BME280;65120;59.304;18.294;2023-04-06T10:53:11;102768.13;;;6.15;54.90
76311;BME280;65120;59.304;18.294;2023-04-06T10:55:39;102763.75;;;6.14;54.62
76311;BME280;65120;59.304;18.294;2023-04-06T10:58:08;102764.75;;;6.18;54.45
76311;BME280;65120;59.304;18.294;2023-04-06T11:00:36;102768.22;;;6.18;54.41
76311;BME280;65120;59.304;18.294;2023-04-06T11:03:09;102766.53;;;6.20;54.71
76311;BME280;65120;59.304;18.294;2023-04-06T11:05:36;102758.72;;;6.19;54.23
76311;BME280;65120;59.304;18.294;2023-04-06T11:08:04;102756.16;;;6.20;54.59
76311;BME280;65120;59.304;18.294;2023-04-06T11:10:31;102754.41;;;6.19;54.49
76311;BME280;65120;59.304;18.294;2023-04-06T11:12:57;102756.97;;;6.18;54.00
76311;BME280;65120;59.304;18.294;2023-04-06T11:15:26;102748.28;;;6.17;54.03
76311;BME280;65120;59.304;18.294;2023-04-06T11:17:52;102750.88;;;6.17;54.20
76311;BME280;65120;59.304;18.294;2023-04-06T11:20:19;102752.69;;;6.20;54.76
76311;BME280;65120;59.304;18.294;2023-04-06T11:22:50;102751.03;;;6.22;54.39
76311;BME280;65120;59.304;18.294;2023-04-06T11:25:18;102757.09;;;6.22;54.65
76311;BME280;65120;59.304;18.294;2023-04-06T11:27:46;102744.19;;;6.24;54.84
76311;BME280;65120;59.304;18.294;2023-04-06T11:30:13;102757.06;;;6.21;54.31
76311;BME280;65120;59.304;18.294;2023-04-06T11:32:43;102753.56;;;6.20;53.96
76311;BME280;65120;59.304;18.294;2023-04-06T11:35:20;102748.34;;;6.19;54.01
76311;BME280;65120;59.304;18.294;2023-04-06T11:37:48;102750.94;;;6.19;53.29
76311;BME280;65120;59.304;18.294;2023-04-06T11:40:16;102748.28;;;6.17;53.83
76311;BME280;65120;59.304;18.294;2023-04-06T11:42:52;102752.59;;;6.17;53.74
76311;BME280;65120;59.304;18.294;2023-04-06T11:45:19;102745.66;;;6.16;54.32
76311;BME280;65120;59.304;18.294;2023-04-06T11:47:55;102745.59;;;6.14;54.36
76311;BME280;65120;59.304;18.294;2023-04-06T11:50:22;102747.38;;;6.15;54.30
76311;BME280;65120;59.304;18.294;2023-04-06T11:52:58;102748.25;;;6.16;53.91
76311;BME280;65120;59.304;18.294;2023-04-06T11:55:25;102747.41;;;6.17;54.34
76311;BME280;65120;59.304;18.294;2023-04-06T11:57:52;102751.78;;;6.18;54.21
76311;BME280;65120;59.304;18.294;2023-04-06T12:00:20;102744.81;;;6.17;53.68
76311;BME280;65120;59.304;18.294;2023-04-06T12:02:48;102759.59;;;6.19;53.98
76311;BME280;65120;59.304;18.294;2023-04-06T12:05:16;102746.63;;;6.19;53.58
76311;BME280;65120;59.304;18.294;2023-04-06T12:07:42;102738.91;;;6.21;53.70
76311;BME280;65120;59.304;18.294;2023-04-06T12:10:10;102739.81;;;6.23;53.63
76311;BME280;65120;59.304;18.294;2023-04-06T12:12:36;102730.28;;;6.22;53.38
76311;BME280;65120;59.304;18.294;2023-04-06T12:15:04;102734.63;;;6.23;53.79
76311;BME280;65120;59.304;18.294;2023-04-06T12:17:31;102735.53;;;6.23;53.63
76311;BME280;65120;59.304;18.294;2023-04-06T12:19:59;102741.63;;;6.25;54.19
76311;BME280;65120;59.304;18.294;2023-04-06T12:22:26;102737.28;;;6.24;53.98
76311;BME280;65120;59.304;18.294;2023-04-06T12:24:53;102739.88;;;6.24;54.06
76311;BME280;65120;59.304;18.294;2023-04-06T12:27:20;102736.41;;;6.24;53.84
76311;BME280;65120;59.304;18.294;2023-04-06T12:29:47;102733.72;;;6.21;54.29
76311;BME280;65120;59.304;18.294;2023-04-06T12:32:14;102737.28;;;6.24;54.23
76311;BME280;65120;59.304;18.294;2023-04-06T12:34:41;102730.34;;;6.23;54.06
76311;BME280;65120;59.304;18.294;2023-04-06T12:37:09;102733.81;;;6.24;54.19
76311;BME280;65120;59.304;18.294;2023-04-06T12:39:36;102725.25;;;6.26;54.11
76311;BME280;65120;59.304;18.294;2023-04-06T12:42:03;102732.19;;;6.27;54.16
76311;BME280;65120;59.304;18.294;2023-04-06T12:44:30;102730.44;;;6.26;54.23
76311;BME280;65120;59.304;18.294;2023-04-06T12:46:56;102724.34;;;6.26;54.79
76311;BME280;65120;59.304;18.294;2023-04-06T12:49:23;102725.28;;;6.28;54.33
76311;BME280;65120;59.304;18.294;2023-04-06T12:51:50;102718.34;;;6.28;53.91